createdAt,value
2022-08-05T00:00:15.940Z,23.74
2022-08-05T00:02:51.638Z,23.76
2022-08-05T00:06:03.134Z,23.68
2022-08-05T00:08:30.821Z,23.47
2022-08-05T00:11:02.453Z,23.32
2022-08-05T00:13:39.463Z,23.23
2022-08-05T00:16:10.962Z,23.34
2022-08-05T00:18:46.135Z,23.32
2022-08-05T00:21:18.260Z,23.32
2022-08-05T00:23:53.684Z,23.10
2022-08-05T00:26:34.200Z,23.06
2022-08-05T00:29:00.992Z,22.94
2022-08-05T00:31:54.399Z,22.90
2022-08-05T00:34:55.586Z,22.93
2022-08-05T00:37:11.630Z,22.79
2022-08-05T00:39:57.858Z,22.87
2022-08-05T00:42:39.710Z,23.06
2022-08-05T00:45:11.650Z,23.18
2022-08-05T00:47:56.585Z,23.19
2022-08-05T00:50:28.008Z,23.13
2022-08-05T00:52:55.500Z,23.04
2022-08-05T00:55:42.159Z,22.80
2022-08-05T00:58:16.757Z,22.83
2022-08-05T01:00:47.810Z,22.55
2022-08-05T01:03:22.643Z,22.37
2022-08-05T01:05:52.016Z,22.45
2022-08-05T01:08:40.291Z,22.41
2022-08-05T01:11:37.016Z,22.43
2022-08-05T01:14:28.011Z,22.31
2022-08-05T01:17:21.773Z,22.26
2022-08-05T01:20:13.532Z,22.12
2022-08-05T01:22:59.364Z,22.10
2022-08-05T01:25:40.434Z,21.99
2022-08-05T01:28:18.936Z,21.79
2022-08-05T01:30:55.380Z,21.84
2022-08-05T01:33:35.343Z,21.85
2022-08-05T01:36:15.996Z,21.81
2022-08-05T01:38:48.544Z,21.60
2022-08-05T01:41:25.534Z,21.54
2022-08-05T01:43:55.054Z,21.89
2022-08-05T01:46:41.476Z,21.81
2022-08-05T01:49:24.101Z,21.52
2022-08-05T01:51:58.964Z,21.47
2022-08-05T01:54:46.138Z,21.61
2022-08-05T01:58:12.771Z,21.43
2022-08-05T02:00:12.873Z,21.49
2022-08-05T02:02:54.351Z,21.32
2022-08-05T02:05:36.584Z,21.14
2022-08-05T02:08:05.806Z,21.10
2022-08-05T02:10:42.246Z,21.27
2022-08-05T02:13:27.931Z,21.52
2022-08-05T02:16:34.014Z,21.15
2022-08-05T02:19:24.432Z,21.26
2022-08-05T02:22:29.833Z,21.17
2022-08-05T02:25:08.705Z,20.95
2022-08-05T02:27:59.349Z,21.18
2022-08-05T02:30:38.687Z,21.23
2022-08-05T02:33:24.613Z,21.14
2022-08-05T02:36:06.558Z,20.77
2022-08-05T02:38:37.797Z,20.67
2022-08-05T02:41:16.933Z,20.81
2022-08-05T02:44:06.561Z,20.85
2022-08-05T02:46:53.558Z,21.05
2022-08-05T02:49:41.670Z,21.21
2022-08-05T02:52:30.233Z,21.16
2022-08-05T02:55:02.047Z,21.15
2022-08-05T02:58:09.942Z,21.27
2022-08-05T03:00:20.824Z,20.94
2022-08-05T03:02:49.676Z,21.05
2022-08-05T03:05:21.836Z,21.13
2022-08-05T03:08:09.425Z,21.18
2022-08-05T03:10:36.941Z,21.14
2022-08-05T03:13:17.121Z,21.16
2022-08-05T03:15:47.240Z,21.19
2022-08-05T03:18:17.279Z,21.15
2022-08-05T03:20:48.565Z,21.09
2022-08-05T03:23:16.646Z,21.02
2022-08-05T03:26:04.830Z,20.88
2022-08-05T03:28:32.165Z,20.80
2022-08-05T03:31:01.403Z,20.82
2022-08-05T03:33:32.216Z,20.84
2022-08-05T03:36:16.825Z,20.90
2022-08-05T03:38:58.508Z,21.03
2022-08-05T03:41:25.420Z,21.03
2022-08-05T03:44:11.472Z,21.06
2022-08-05T03:46:38.920Z,21.12
2022-08-05T03:49:05.739Z,21.20
2022-08-05T03:52:38.509Z,21.19
2022-08-05T03:56:03.960Z,21.21
2022-08-05T03:57:46.538Z,21.16
2022-08-05T04:00:17.596Z,21.20
2022-08-05T04:02:57.707Z,21.26
2022-08-05T04:05:33.659Z,21.21
2022-08-05T04:08:05.875Z,21.18
2022-08-05T04:10:44.305Z,21.17
2022-08-05T04:13:12.251Z,21.21
2022-08-05T04:15:39.884Z,21.32
2022-08-05T04:18:26.996Z,21.40
2022-08-05T04:20:58.270Z,21.38
2022-08-05T04:24:05.081Z,21.40
2022-08-05T04:26:17.322Z,21.47
2022-08-05T04:28:51.114Z,21.54
2022-08-05T04:31:20.050Z,21.53
2022-08-05T04:34:17.404Z,21.57
2022-08-05T04:36:46.323Z,21.71
2022-08-05T04:39:20.641Z,21.85
2022-08-05T04:41:51.121Z,21.90
2022-08-05T04:44:21.273Z,21.91
2022-08-05T04:46:58.761Z,21.95
2022-08-05T04:49:38.426Z,22.04
2022-08-05T04:52:15.282Z,22.06
2022-08-05T04:54:42.615Z,22.08
2022-08-05T04:57:09.411Z,22.21
2022-08-05T04:59:38.243Z,22.35
2022-08-05T05:02:36.105Z,22.50
2022-08-05T05:05:02.301Z,22.61
2022-08-05T05:07:32.682Z,22.72
2022-08-05T05:10:05.508Z,22.85
2022-08-05T05:12:33.454Z,22.92
2022-08-05T05:15:03.762Z,23.00
2022-08-05T05:17:57.179Z,23.08
2022-08-05T05:20:28.308Z,23.18
2022-08-05T05:22:58.541Z,23.28
2022-08-05T05:25:32.821Z,23.36
2022-08-05T05:28:09.279Z,23.41
2022-08-05T05:30:37.201Z,23.47
2022-08-05T05:33:16.256Z,23.53
2022-08-05T05:35:48.365Z,23.63
2022-08-05T05:38:27.216Z,23.76
2022-08-05T05:40:57.007Z,23.86
2022-08-05T05:43:54.583Z,23.83
2022-08-05T05:46:17.442Z,23.80
2022-08-05T05:48:48.535Z,23.81
2022-08-05T05:51:27.933Z,23.80
2022-08-05T05:53:59.483Z,23.78
2022-08-05T05:56:34.442Z,23.81
2022-08-05T05:59:05.500Z,23.81
2022-08-05T06:01:39.659Z,23.81
2022-08-05T06:04:13.360Z,23.83
2022-08-05T06:06:47.760Z,23.85
2022-08-05T06:09:24.864Z,23.93
2022-08-05T06:12:02.728Z,23.93
2022-08-05T06:14:31.689Z,23.88
2022-08-05T06:17:02.188Z,23.91
2022-08-05T06:19:56.722Z,23.87
2022-08-05T06:22:33.622Z,23.79
2022-08-05T06:25:59.695Z,23.48
2022-08-05T06:28:10.757Z,23.28
2022-08-05T06:30:39.029Z,23.21
2022-08-05T06:33:09.722Z,23.17
2022-08-05T06:36:07.013Z,23.22
2022-08-05T06:38:36.765Z,23.39
2022-08-05T06:41:05.538Z,23.56
2022-08-05T06:43:57.392Z,23.60
2022-08-05T06:46:30.296Z,23.61
2022-08-05T06:48:59.770Z,23.81
2022-08-05T06:51:29.993Z,23.87
2022-08-05T06:53:59.959Z,24.11
2022-08-05T06:56:28.442Z,24.48
2022-08-05T06:58:55.982Z,24.29
2022-08-05T07:01:23.596Z,24.34
2022-08-05T07:03:54.567Z,24.33
2022-08-05T07:06:22.873Z,24.45
2022-08-05T07:08:52.049Z,24.61
2022-08-05T07:11:25.547Z,24.58
2022-08-05T07:14:20.055Z,24.58
2022-08-05T07:18:00.305Z,24.88
2022-08-05T07:22:28.961Z,24.90
2022-08-05T07:25:23.870Z,24.87
2022-08-05T07:27:57.637Z,25.08
2022-08-05T07:30:38.954Z,25.24
2022-08-05T07:33:16.088Z,25.13
2022-08-05T07:36:03.569Z,24.83
2022-08-05T07:38:43.121Z,24.69
2022-08-05T07:42:08.001Z,24.58
2022-08-05T07:44:14.121Z,24.62
2022-08-05T07:46:48.459Z,24.55
2022-08-05T07:49:18.242Z,24.58
2022-08-05T07:51:54.055Z,24.62
2022-08-05T07:54:31.536Z,24.44
2022-08-05T07:57:41.711Z,24.31
2022-08-05T07:59:53.466Z,24.37
2022-08-05T08:02:31.303Z,24.41
2022-08-05T08:05:14.172Z,24.29
2022-08-05T08:07:59.473Z,24.24
2022-08-05T08:10:27.693Z,24.20
2022-08-05T08:12:54.802Z,24.17
2022-08-05T08:16:33.912Z,24.08
2022-08-05T08:18:14.269Z,24.15
2022-08-05T08:20:59.833Z,24.16
2022-08-05T08:24:01.741Z,24.31
2022-08-05T08:26:14.524Z,24.45
2022-08-05T08:28:55.075Z,24.45
2022-08-05T08:31:26.984Z,24.19
2022-08-05T08:33:54.070Z,24.31
2022-08-05T08:36:38.176Z,24.30
2022-08-05T08:39:15.383Z,24.19
2022-08-05T08:41:59.746Z,24.13
2022-08-05T08:45:20.090Z,24.12
2022-08-05T08:48:06.089Z,24.08
2022-08-05T08:50:33.175Z,24.05
2022-08-05T08:53:07.932Z,24.05
2022-08-05T08:56:04.114Z,23.90
2022-08-05T08:58:43.192Z,23.88
2022-08-05T09:01:16.671Z,23.80
2022-08-05T09:03:55.172Z,23.69
2022-08-05T09:06:29.973Z,23.70
2022-08-05T09:09:01.408Z,23.68
2022-08-05T09:11:50.706Z,23.64
2022-08-05T09:14:58.425Z,23.72
2022-08-05T09:17:09.773Z,23.72
2022-08-05T09:20:02.585Z,23.72
2022-08-05T09:23:18.646Z,23.80
2022-08-05T09:26:06.071Z,23.88
2022-08-05T09:28:36.663Z,23.88
2022-08-05T09:31:22.661Z,23.91
2022-08-05T09:34:05.038Z,23.92
2022-08-05T09:36:54.871Z,23.93
2022-08-05T09:39:41.426Z,23.89
2022-08-05T09:42:23.309Z,23.97
2022-08-05T09:44:56.720Z,23.94
2022-08-05T09:47:47.963Z,23.93
2022-08-05T09:50:38.951Z,23.90
2022-08-05T09:53:06.532Z,23.84
2022-08-05T09:55:57.918Z,23.67
2022-08-05T09:58:25.255Z,23.66
2022-08-05T10:01:02.229Z,23.72
2022-08-05T10:03:58.844Z,23.71
2022-08-05T10:06:28.379Z,23.65
2022-08-05T10:09:09.250Z,23.66
2022-08-05T10:11:52.288Z,23.60
2022-08-05T10:14:30.258Z,23.37
2022-08-05T10:17:37.979Z,23.25
2022-08-05T10:20:10.881Z,23.48
2022-08-05T10:22:42.907Z,23.62
2022-08-05T10:25:16.144Z,23.77
2022-08-05T10:28:13.272Z,23.85
2022-08-05T10:31:20.711Z,23.95
2022-08-05T10:33:17.609Z,23.90
2022-08-05T10:35:51.006Z,23.80
2022-08-05T10:38:29.255Z,23.77
2022-08-05T10:41:13.831Z,23.82
2022-08-05T10:43:57.522Z,23.75
2022-08-05T10:46:46.785Z,23.70
2022-08-05T10:49:26.567Z,23.64
2022-08-05T10:52:02.564Z,23.51
2022-08-05T10:55:04.145Z,23.50
2022-08-05T10:57:33.969Z,23.42
2022-08-05T11:00:23.205Z,23.24
2022-08-05T11:03:25.285Z,23.30
2022-08-05T11:06:04.716Z,23.36
2022-08-05T11:08:37.327Z,23.35
2022-08-05T11:11:53.013Z,23.56
2022-08-05T11:15:01.442Z,24.27
2022-08-05T11:17:59.518Z,24.26
2022-08-05T11:20:48.398Z,24.30
2022-08-05T11:24:02.604Z,24.38
2022-08-05T11:26:32.211Z,24.53
2022-08-05T11:29:11.665Z,24.59
2022-08-05T11:31:58.242Z,24.62
2022-08-05T11:34:47.614Z,24.72
2022-08-05T11:38:36.797Z,24.47
2022-08-05T11:41:14.032Z,24.44
2022-08-05T11:44:06.621Z,24.64
2022-08-05T11:47:09.361Z,24.87
2022-08-05T11:49:42.941Z,24.80
2022-08-05T11:52:11.460Z,24.65
2022-08-05T11:54:41.325Z,24.60
2022-08-05T11:57:25.580Z,25.00
2022-08-05T11:59:54.872Z,25.13
2022-08-05T12:02:31.217Z,25.36
2022-08-05T12:05:08.203Z,25.50
2022-08-05T12:08:10.270Z,25.52
2022-08-05T12:10:45.288Z,25.67
2022-08-05T12:13:28.203Z,25.75
2022-08-05T12:16:14.713Z,25.55
2022-08-05T12:18:49.465Z,25.54
2022-08-05T12:21:21.493Z,25.89
2022-08-05T12:24:00.199Z,25.89
2022-08-05T12:27:09.858Z,25.74
2022-08-05T12:30:15.163Z,25.84
2022-08-05T12:32:50.780Z,26.00
2022-08-05T12:35:21.818Z,25.92
2022-08-05T12:37:49.707Z,26.05
2022-08-05T12:40:26.859Z,26.21
2022-08-05T12:42:56.874Z,26.46
2022-08-05T12:45:23.631Z,26.66
2022-08-05T12:48:27.532Z,26.33
2022-08-05T12:51:21.756Z,26.47
2022-08-05T12:54:03.655Z,26.49
2022-08-05T12:56:35.218Z,26.69
2022-08-05T12:59:27.442Z,26.83
2022-08-05T13:02:18.986Z,26.93
2022-08-05T13:04:52.246Z,26.92
2022-08-05T13:07:47.849Z,26.80
2022-08-05T13:10:14.739Z,27.06
2022-08-05T13:12:51.178Z,27.04
2022-08-05T13:15:35.765Z,27.09
2022-08-05T13:18:08.588Z,26.95
2022-08-05T13:20:40.454Z,26.91
2022-08-05T13:23:07.654Z,26.91
2022-08-05T13:25:58.580Z,27.01
2022-08-05T13:28:22.342Z,27.21
2022-08-05T13:30:51.277Z,27.36
2022-08-05T13:34:24.055Z,27.80
2022-08-05T13:36:09.668Z,27.74
2022-08-05T13:38:38.455Z,27.57
2022-08-05T13:41:11.508Z,27.65
2022-08-05T13:43:44.737Z,27.59
2022-08-05T13:46:43.652Z,27.35
2022-08-05T13:49:12.953Z,27.15
2022-08-05T13:51:46.688Z,27.02
2022-08-05T13:54:16.341Z,26.86
2022-08-05T13:56:51.621Z,26.95
2022-08-05T13:59:24.366Z,26.90
2022-08-05T14:01:58.361Z,26.70
2022-08-05T14:04:51.807Z,26.58
2022-08-05T14:07:59.579Z,26.82
2022-08-05T14:10:28.971Z,26.99
2022-08-05T14:12:59.404Z,27.05
2022-08-05T14:16:07.938Z,27.57
2022-08-05T14:18:18.567Z,28.13
2022-08-05T14:20:48.358Z,28.02
2022-08-05T14:23:25.306Z,27.82
2022-08-05T14:25:58.666Z,27.37
2022-08-05T14:28:30.561Z,26.93
2022-08-05T14:31:01.408Z,26.81
2022-08-05T14:33:56.397Z,26.66
2022-08-05T14:36:15.846Z,26.61
2022-08-05T14:38:49.545Z,26.59
2022-08-05T14:41:18.527Z,26.53
2022-08-05T14:44:02.023Z,26.50
2022-08-05T14:46:35.147Z,26.52
2022-08-05T14:49:07.446Z,26.57
2022-08-05T14:51:42.915Z,26.49
2022-08-05T14:54:27.547Z,26.55
2022-08-05T14:56:57.741Z,26.46
2022-08-05T14:59:29.224Z,26.34
2022-08-05T15:02:24.197Z,26.23
2022-08-05T15:04:51.050Z,26.20
2022-08-05T15:08:09.184Z,26.18
2022-08-05T15:10:05.345Z,26.02
2022-08-05T15:12:58.039Z,25.90
2022-08-05T15:15:54.226Z,25.74
2022-08-05T15:18:10.994Z,25.70
2022-08-05T15:20:41.681Z,25.65
2022-08-05T15:23:13.237Z,25.60
2022-08-05T15:25:51.424Z,25.57
2022-08-05T15:28:27.112Z,25.46
2022-08-05T15:30:55.290Z,25.36
2022-08-05T15:34:04.969Z,25.22
2022-08-05T15:36:17.459Z,25.16
2022-08-05T15:40:40.943Z,25.06
2022-08-05T15:41:58.502Z,24.99
2022-08-05T15:44:30.028Z,24.97
2022-08-05T15:46:59.294Z,24.93
2022-08-05T15:49:53.591Z,24.89
2022-08-05T15:52:29.237Z,24.88
2022-08-05T15:55:01.540Z,24.85
2022-08-05T15:57:33.126Z,24.81
2022-08-05T16:00:06.862Z,24.70
2022-08-05T16:02:34.046Z,24.50
2022-08-05T16:05:01.286Z,24.39
2022-08-05T16:07:29.502Z,24.35
2022-08-05T16:09:56.612Z,24.27
2022-08-05T16:12:24.836Z,24.22
2022-08-05T16:14:52.248Z,23.97
2022-08-05T16:17:19.054Z,23.85
2022-08-05T16:20:05.630Z,23.86
2022-08-05T16:22:33.878Z,23.83
2022-08-05T16:25:07.866Z,23.78
2022-08-05T16:28:00.655Z,23.69
2022-08-05T16:30:26.049Z,23.52
2022-08-05T16:32:54.399Z,23.37
2022-08-05T16:35:27.738Z,23.36
2022-08-05T16:38:13.541Z,23.34
2022-08-05T16:40:51.943Z,23.21
2022-08-05T16:43:25.405Z,23.20
2022-08-05T16:46:07.235Z,23.13
2022-08-05T16:48:40.135Z,23.14
2022-08-05T16:51:09.128Z,23.13
2022-08-05T16:54:04.738Z,23.08
2022-08-05T16:56:31.365Z,23.17
2022-08-05T16:59:01.450Z,23.11
2022-08-05T17:01:54.454Z,23.13
2022-08-05T17:04:26.453Z,23.22
2022-08-05T17:06:55.635Z,23.00
2022-08-05T17:09:23.822Z,22.74
2022-08-05T17:11:56.093Z,22.65
2022-08-05T17:14:36.633Z,22.66
2022-08-05T17:17:14.270Z,22.40
2022-08-05T17:19:43.778Z,21.96
2022-08-05T17:22:24.791Z,21.91
2022-08-05T17:24:56.878Z,21.79
2022-08-05T17:27:34.373Z,21.61
2022-08-05T17:30:04.401Z,21.25
2022-08-05T17:32:34.647Z,21.08
2022-08-05T17:35:02.875Z,20.92
2022-08-05T17:37:41.495Z,20.92
2022-08-05T17:40:16.194Z,20.81
2022-08-05T17:42:50.679Z,20.65
2022-08-05T17:45:22.384Z,20.59
2022-08-05T17:47:56.018Z,20.40
2022-08-05T17:50:30.509Z,20.17
2022-08-05T17:53:04.907Z,19.99
2022-08-05T17:55:38.350Z,19.93
2022-08-05T17:58:12.263Z,19.87
2022-08-05T18:00:50.800Z,19.69
2022-08-05T18:06:11.331Z,19.59
2022-08-05T18:08:40.637Z,19.64
2022-08-05T18:11:23.200Z,19.63
2022-08-05T18:13:52.276Z,19.64
2022-08-05T18:16:20.398Z,19.62
2022-08-05T18:18:48.015Z,19.62
2022-08-05T18:21:21.430Z,19.57
2022-08-05T18:23:53.727Z,19.54
2022-08-05T18:26:28.947Z,19.51
2022-08-05T18:28:58.435Z,19.38
2022-08-05T18:31:25.353Z,19.31
2022-08-05T18:34:00.018Z,19.25
2022-08-05T18:36:28.023Z,19.40
2022-08-05T18:38:55.818Z,19.33
2022-08-05T18:41:57.704Z,19.21
2022-08-05T18:44:10.956Z,19.17
2022-08-05T18:46:41.301Z,19.19
2022-08-05T18:49:30.328Z,19.11
2022-08-05T18:52:16.740Z,19.07
2022-08-05T18:54:45.970Z,18.98
2022-08-05T18:57:15.138Z,18.94
2022-08-05T19:00:01.754Z,18.99
2022-08-05T19:02:29.677Z,19.02
2022-08-05T19:05:02.750Z,18.93
2022-08-05T19:07:48.151Z,18.76
2022-08-05T19:10:26.632Z,18.68
2022-08-05T19:12:57.088Z,18.66
2022-08-05T19:15:58.350Z,18.60
2022-08-05T19:18:20.896Z,18.63
2022-08-05T19:20:52.438Z,18.63
2022-08-05T19:24:06.210Z,18.63
2022-08-05T19:26:08.426Z,18.60
2022-08-05T19:28:42.050Z,18.54
2022-08-05T19:31:13.345Z,18.57
2022-08-05T19:33:55.657Z,18.49
2022-08-05T19:36:29.235Z,18.48
2022-08-05T19:39:01.006Z,18.30
2022-08-05T19:42:03.349Z,18.20
2022-08-05T19:44:19.293Z,18.20
2022-08-05T19:46:46.852Z,18.19
2022-08-05T19:49:16.630Z,18.17
2022-08-05T19:52:05.555Z,18.12
2022-08-05T19:54:34.287Z,18.13
2022-08-05T19:57:06.750Z,18.13
2022-08-05T19:59:54.966Z,18.07
2022-08-05T20:02:30.447Z,18.00
2022-08-05T20:04:59.761Z,17.92
2022-08-05T20:07:46.662Z,17.96
2022-08-05T20:10:19.380Z,17.87
2022-08-05T20:12:49.470Z,17.84
2022-08-05T20:15:23.066Z,17.76
2022-08-05T20:18:32.535Z,17.73
2022-08-05T20:20:57.152Z,17.76
2022-08-05T20:23:40.715Z,17.69
2022-08-05T20:26:17.279Z,17.65
2022-08-05T20:28:54.081Z,17.64
2022-08-05T20:31:37.307Z,17.69
2022-08-05T20:34:11.582Z,17.58
2022-08-05T20:36:43.407Z,17.65
2022-08-05T20:39:16.173Z,17.62
2022-08-05T20:41:45.465Z,17.51
2022-08-05T20:44:30.677Z,17.59
2022-08-05T20:47:03.612Z,17.80
2022-08-05T20:49:33.265Z,17.63
2022-08-05T20:52:07.716Z,17.54
2022-08-05T20:54:58.893Z,17.59
2022-08-05T20:57:42.095Z,17.54
2022-08-05T21:00:41.157Z,17.61
2022-08-05T21:03:06.289Z,17.50
2022-08-05T21:05:47.883Z,17.44
2022-08-05T21:08:32.973Z,17.42
2022-08-05T21:11:15.167Z,17.41
2022-08-05T21:14:00.366Z,17.33
2022-08-05T21:16:30.796Z,17.30
2022-08-05T21:19:01.172Z,17.27
2022-08-05T21:21:39.267Z,17.22
2022-08-05T21:24:15.237Z,17.24
2022-08-05T21:26:50.516Z,17.21
2022-08-05T21:29:26.455Z,17.29
2022-08-05T21:31:58.632Z,17.29
2022-08-05T21:34:25.510Z,17.27
2022-08-05T21:36:55.222Z,17.19
2022-08-05T21:39:26.824Z,17.13
2022-08-05T21:42:01.003Z,17.08
2022-08-05T21:44:28.748Z,17.03
2022-08-05T21:46:57.913Z,16.98
2022-08-05T21:49:58.771Z,17.03
2022-08-05T21:52:16.275Z,17.02
2022-08-05T21:54:51.225Z,17.03
2022-08-05T21:57:31.674Z,16.89
2022-08-05T22:00:06.195Z,16.91
2022-08-05T22:02:34.596Z,16.89
2022-08-05T22:05:01.440Z,16.76
2022-08-05T22:07:39.921Z,16.72
2022-08-05T22:10:26.658Z,16.63
2022-08-05T22:13:09.279Z,16.67
2022-08-05T22:16:00.318Z,16.67
2022-08-05T22:18:31.759Z,16.63
2022-08-05T22:20:58.849Z,16.62
2022-08-05T22:24:02.229Z,16.65
2022-08-05T22:26:50.723Z,16.51
2022-08-05T22:29:19.026Z,16.50
2022-08-05T22:31:55.176Z,16.55
2022-08-05T22:34:28.706Z,16.52
2022-08-05T22:36:58.316Z,16.41
2022-08-05T22:39:33.311Z,16.44
2022-08-05T22:42:12.304Z,16.44
2022-08-05T22:44:42.689Z,16.36
2022-08-05T22:47:30.004Z,16.32
2022-08-05T22:50:19.482Z,16.31
2022-08-05T22:52:52.762Z,16.28
2022-08-05T22:55:21.945Z,16.34
2022-08-05T22:57:51.350Z,16.31
2022-08-05T23:00:22.261Z,16.29
2022-08-05T23:02:53.431Z,16.28
2022-08-05T23:05:22.732Z,16.28
2022-08-05T23:07:51.415Z,16.28
2022-08-05T23:10:23.538Z,16.23
2022-08-05T23:12:54.718Z,16.23
2022-08-05T23:15:29.599Z,16.27
2022-08-05T23:18:03.520Z,16.27
2022-08-05T23:20:37.345Z,16.19
2022-08-05T23:23:07.969Z,16.21
2022-08-05T23:25:52.100Z,16.14
2022-08-05T23:28:20.967Z,16.05
2022-08-05T23:30:54.006Z,15.99
2022-08-05T23:33:26.181Z,15.92
2022-08-05T23:36:10.873Z,15.91
2022-08-05T23:38:41.179Z,15.84
2022-08-05T23:41:10.082Z,15.77
2022-08-05T23:44:05.366Z,15.71
2022-08-05T23:46:23.748Z,15.66
2022-08-05T23:49:00.919Z,15.65
2022-08-05T23:51:55.095Z,15.59
2022-08-05T23:54:34.132Z,15.57
2022-08-05T23:57:07.005Z,15.52
